sensor_id;sensor_type;location;lat;lon;timestamp;P1;durP1;ratioP1;P2;durP2;ratioP2
19205;SDS011;59358;52.134;5.596;2023-03-15T00:01:58;3.42;;;1.80;;
19205;SDS011;59358;52.134;5.596;2023-03-15T00:04:25;1.90;;;1.65;;
19205;SDS011;59358;52.134;5.596;2023-03-15T00:06:52;4.20;;;1.80;;
19205;SDS011;59358;52.134;5.596;2023-03-15T00:09:20;1.27;;;1.17;;
19205;SDS011;59358;52.134;5.596;2023-03-15T00:11:48;2.35;;;1.20;;
19205;SDS011;59358;52.134;5.596;2023-03-15T00:14:15;3.15;;;2.10;;
19205;SDS011;59358;52.134;5.596;2023-03-15T00:16:42;3.63;;;1.40;;
19205;SDS011;59358;52.134;5.596;2023-03-15T00:19:11;2.10;;;1.50;;
19205;SDS011;59358;52.134;5.596;2023-03-15T00:21:38;1.88;;;1.40;;
19205;SDS011;59358;52.134;5.596;2023-03-15T00:24:07;0.80;;;0.80;;
19205;SDS011;59358;52.134;5.596;2023-03-15T00:26:35;1.95;;;1.27;;
19205;SDS011;59358;52.134;5.596;2023-03-15T00:29:02;1.27;;;1.17;;
19205;SDS011;59358;52.134;5.596;2023-03-15T00:31:29;3.05;;;2.03;;
19205;SDS011;59358;52.134;5.596;2023-03-15T00:33:56;2.33;;;1.83;;
19205;SDS011;59358;52.134;5.596;2023-03-15T00:36:24;3.35;;;2.22;;
19205;SDS011;59358;52.134;5.596;2023-03-15T00:38:52;5.28;;;3.20;;
19205;SDS011;59358;52.134;5.596;2023-03-15T00:41:20;4.07;;;2.67;;
19205;SDS011;59358;52.134;5.596;2023-03-15T00:43:49;5.13;;;3.50;;
19205;SDS011;59358;52.134;5.596;2023-03-15T00:46:17;5.40;;;3.40;;
19205;SDS011;59358;52.134;5.596;2023-03-15T00:48:46;5.97;;;4.18;;
19205;SDS011;59358;52.134;5.596;2023-03-15T00:51:14;7.53;;;4.82;;
19205;SDS011;59358;52.134;5.596;2023-03-15T00:53:44;7.50;;;5.25;;
19205;SDS011;59358;52.134;5.596;2023-03-15T00:56:13;9.02;;;5.30;;
19205;SDS011;59358;52.134;5.596;2023-03-15T00:58:41;9.00;;;5.70;;
19205;SDS011;59358;52.134;5.596;2023-03-15T01:01:09;9.20;;;5.88;;
19205;SDS011;59358;52.134;5.596;2023-03-15T01:03:37;8.98;;;5.78;;
19205;SDS011;59358;52.134;5.596;2023-03-15T01:06:06;10.68;;;6.18;;
19205;SDS011;59358;52.134;5.596;2023-03-15T01:08:34;8.65;;;5.28;;
19205;SDS011;59358;52.134;5.596;2023-03-15T01:11:02;11.25;;;5.68;;
19205;SDS011;59358;52.134;5.596;2023-03-15T01:13:30;15.63;;;6.45;;
19205;SDS011;59358;52.134;5.596;2023-03-15T01:15:57;11.90;;;6.40;;
19205;SDS011;59358;52.134;5.596;2023-03-15T01:18:24;7.30;;;5.15;;
19205;SDS011;59358;52.134;5.596;2023-03-15T01:20:51;15.77;;;6.50;;
19205;SDS011;59358;52.134;5.596;2023-03-15T01:23:19;11.57;;;6.30;;
19205;SDS011;59358;52.134;5.596;2023-03-15T01:25:46;11.57;;;6.60;;
19205;SDS011;59358;52.134;5.596;2023-03-15T01:28:14;11.70;;;6.57;;
19205;SDS011;59358;52.134;5.596;2023-03-15T01:30:47;12.63;;;7.57;;
19205;SDS011;59358;52.134;5.596;2023-03-15T01:33:14;10.63;;;5.75;;
19205;SDS011;59358;52.134;5.596;2023-03-15T01:35:41;11.25;;;5.72;;
19205;SDS011;59358;52.134;5.596;2023-03-15T01:38:08;11.27;;;5.78;;
19205;SDS011;59358;52.134;5.596;2023-03-15T01:41:00;11.70;;;5.85;;
19205;SDS011;59358;52.134;5.596;2023-03-15T01:43:28;9.60;;;5.72;;
19205;SDS011;59358;52.134;5.596;2023-03-15T01:46:11;10.48;;;6.10;;
19205;SDS011;59358;52.134;5.596;2023-03-15T01:48:48;11.00;;;5.85;;
19205;SDS011;59358;52.134;5.596;2023-03-15T01:51:19;12.13;;;6.03;;
19205;SDS011;59358;52.134;5.596;2023-03-15T01:53:50;13.32;;;6.25;;
19205;SDS011;59358;52.134;5.596;2023-03-15T01:56:21;13.18;;;6.90;;
19205;SDS011;59358;52.134;5.596;2023-03-15T01:58:51;11.77;;;6.10;;
19205;SDS011;59358;52.134;5.596;2023-03-15T02:01:20;12.65;;;6.03;;
19205;SDS011;59358;52.134;5.596;2023-03-15T02:03:48;14.38;;;6.35;;
19205;SDS011;59358;52.134;5.596;2023-03-15T02:06:20;12.68;;;6.55;;
19205;SDS011;59358;52.134;5.596;2023-03-15T02:08:49;19.92;;;6.72;;
19205;SDS011;59358;52.134;5.596;2023-03-15T02:11:18;12.82;;;6.47;;
19205;SDS011;59358;52.134;5.596;2023-03-15T02:13:46;11.07;;;5.38;;
19205;SDS011;59358;52.134;5.596;2023-03-15T02:16:15;10.23;;;4.90;;
19205;SDS011;59358;52.134;5.596;2023-03-15T02:18:43;11.48;;;5.72;;
19205;SDS011;59358;52.134;5.596;2023-03-15T02:21:17;12.57;;;5.40;;
19205;SDS011;59358;52.134;5.596;2023-03-15T02:23:55;8.07;;;4.38;;
19205;SDS011;59358;52.134;5.596;2023-03-15T02:26:30;11.30;;;4.57;;
19205;SDS011;59358;52.134;5.596;2023-03-15T02:29:06;10.90;;;5.05;;
19205;SDS011;59358;52.134;5.596;2023-03-15T02:31:33;8.95;;;5.00;;
19205;SDS011;59358;52.134;5.596;2023-03-15T02:34:02;13.65;;;5.05;;
19205;SDS011;59358;52.134;5.596;2023-03-15T02:36:30;13.48;;;4.97;;
19205;SDS011;59358;52.134;5.596;2023-03-15T02:38:57;10.50;;;5.13;;
19205;SDS011;59358;52.134;5.596;2023-03-15T02:41:25;14.75;;;5.07;;
19205;SDS011;59358;52.134;5.596;2023-03-15T02:43:56;14.15;;;3.97;;
19205;SDS011;59358;52.134;5.596;2023-03-15T02:46:28;9.73;;;4.72;;
19205;SDS011;59358;52.134;5.596;2023-03-15T02:48:55;12.05;;;4.55;;
19205;SDS011;59358;52.134;5.596;2023-03-15T02:51:25;9.75;;;4.35;;
19205;SDS011;59358;52.134;5.596;2023-03-15T02:53:53;8.57;;;4.00;;
19205;SDS011;59358;52.134;5.596;2023-03-15T02:56:20;13.32;;;4.75;;
19205;SDS011;59358;52.134;5.596;2023-03-15T02:58:48;10.55;;;4.55;;
19205;SDS011;59358;52.134;5.596;2023-03-15T03:01:16;12.85;;;5.47;;
19205;SDS011;59358;52.134;5.596;2023-03-15T03:03:45;11.15;;;4.85;;
19205;SDS011;59358;52.134;5.596;2023-03-15T03:06:13;12.40;;;4.38;;
19205;SDS011;59358;52.134;5.596;2023-03-15T03:08:41;13.80;;;4.57;;
19205;SDS011;59358;52.134;5.596;2023-03-15T03:11:11;14.23;;;5.03;;
19205;SDS011;59358;52.134;5.596;2023-03-15T03:13:38;11.38;;;4.50;;
19205;SDS011;59358;52.134;5.596;2023-03-15T03:16:05;12.13;;;3.97;;
19205;SDS011;59358;52.134;5.596;2023-03-15T03:18:32;17.50;;;4.53;;
19205;SDS011;59358;52.134;5.596;2023-03-15T03:21:01;7.38;;;3.83;;
19205;SDS011;59358;52.134;5.596;2023-03-15T03:23:29;11.60;;;4.30;;
19205;SDS011;59358;52.134;5.596;2023-03-15T03:25:57;10.27;;;3.78;;
19205;SDS011;59358;52.134;5.596;2023-03-15T03:28:26;12.57;;;4.38;;
19205;SDS011;59358;52.134;5.596;2023-03-15T03:30:55;12.63;;;4.55;;
19205;SDS011;59358;52.134;5.596;2023-03-15T03:33:22;8.82;;;3.92;;
19205;SDS011;59358;52.134;5.596;2023-03-15T03:35:49;10.13;;;3.97;;
19205;SDS011;59358;52.134;5.596;2023-03-15T03:38:17;10.80;;;4.50;;
19205;SDS011;59358;52.134;5.596;2023-03-15T03:40:44;11.55;;;4.35;;
19205;SDS011;59358;52.134;5.596;2023-03-15T03:43:11;8.75;;;4.18;;
19205;SDS011;59358;52.134;5.596;2023-03-15T03:45:38;12.07;;;3.42;;
19205;SDS011;59358;52.134;5.596;2023-03-15T03:48:05;13.32;;;4.35;;
19205;SDS011;59358;52.134;5.596;2023-03-15T03:50:31;11.32;;;4.20;;
19205;SDS011;59358;52.134;5.596;2023-03-15T03:52:58;14.98;;;3.85;;
19205;SDS011;59358;52.134;5.596;2023-03-15T03:55:26;12.45;;;4.07;;
19205;SDS011;59358;52.134;5.596;2023-03-15T03:57:53;11.73;;;4.05;;
19205;SDS011;59358;52.134;5.596;2023-03-15T04:00:20;9.52;;;4.40;;
19205;SDS011;59358;52.134;5.596;2023-03-15T04:02:47;9.73;;;4.18;;
19205;SDS011;59358;52.134;5.596;2023-03-15T04:05:18;14.93;;;4.35;;
19205;SDS011;59358;52.134;5.596;2023-03-15T04:07:45;16.83;;;4.65;;
19205;SDS011;59358;52.134;5.596;2023-03-15T04:10:12;13.52;;;4.93;;
19205;SDS011;59358;52.134;5.596;2023-03-15T04:12:40;12.48;;;4.47;;
19205;SDS011;59358;52.134;5.596;2023-03-15T04:15:08;14.10;;;5.03;;
19205;SDS011;59358;52.134;5.596;2023-03-15T04:17:36;11.45;;;4.90;;
19205;SDS011;59358;52.134;5.596;2023-03-15T04:20:03;16.23;;;4.28;;
19205;SDS011;59358;52.134;5.596;2023-03-15T04:22:33;13.00;;;5.00;;
19205;SDS011;59358;52.134;5.596;2023-03-15T04:24:59;14.68;;;4.72;;
19205;SDS011;59358;52.134;5.596;2023-03-15T04:27:27;12.45;;;4.75;;
19205;SDS011;59358;52.134;5.596;2023-03-15T04:29:55;10.95;;;5.00;;
19205;SDS011;59358;52.134;5.596;2023-03-15T04:32:22;12.23;;;4.45;;
19205;SDS011;59358;52.134;5.596;2023-03-15T04:34:49;13.30;;;4.20;;
19205;SDS011;59358;52.134;5.596;2023-03-15T04:37:16;11.63;;;4.88;;
19205;SDS011;59358;52.134;5.596;2023-03-15T04:39:43;14.10;;;5.25;;
19205;SDS011;59358;52.134;5.596;2023-03-15T04:42:10;12.63;;;4.82;;
19205;SDS011;59358;52.134;5.596;2023-03-15T04:44:38;11.85;;;4.65;;
19205;SDS011;59358;52.134;5.596;2023-03-15T04:47:09;12.45;;;5.25;;
19205;SDS011;59358;52.134;5.596;2023-03-15T04:49:36;9.73;;;4.57;;
19205;SDS011;59358;52.134;5.596;2023-03-15T04:52:03;13.43;;;4.55;;
19205;SDS011;59358;52.134;5.596;2023-03-15T04:54:30;16.77;;;5.28;;
19205;SDS011;59358;52.134;5.596;2023-03-15T04:56:57;20.45;;;6.38;;
19205;SDS011;59358;52.134;5.596;2023-03-15T04:59:24;16.63;;;5.95;;
19205;SDS011;59358;52.134;5.596;2023-03-15T05:01:50;12.73;;;5.68;;
19205;SDS011;59358;52.134;5.596;2023-03-15T05:04:19;17.42;;;5.20;;
19205;SDS011;59358;52.134;5.596;2023-03-15T05:06:45;17.30;;;5.50;;
19205;SDS011;59358;52.134;5.596;2023-03-15T05:09:12;15.23;;;5.65;;
19205;SDS011;59358;52.134;5.596;2023-03-15T05:11:43;16.90;;;6.30;;
19205;SDS011;59358;52.134;5.596;2023-03-15T05:14:10;17.75;;;6.32;;
19205;SDS011;59358;52.134;5.596;2023-03-15T05:16:36;15.50;;;6.47;;
19205;SDS011;59358;52.134;5.596;2023-03-15T05:19:03;14.88;;;6.03;;
19205;SDS011;59358;52.134;5.596;2023-03-15T05:21:31;14.35;;;6.13;;
19205;SDS011;59358;52.134;5.596;2023-03-15T05:23:58;18.80;;;6.75;;
19205;SDS011;59358;52.134;5.596;2023-03-15T05:26:25;16.40;;;6.43;;
19205;SDS011;59358;52.134;5.596;2023-03-15T05:28:52;21.92;;;6.55;;
19205;SDS011;59358;52.134;5.596;2023-03-15T05:31:18;18.00;;;6.38;;
19205;SDS011;59358;52.134;5.596;2023-03-15T05:33:46;15.57;;;7.68;;
19205;SDS011;59358;52.134;5.596;2023-03-15T05:36:12;26.42;;;7.97;;
19205;SDS011;59358;52.134;5.596;2023-03-15T05:38:41;16.58;;;6.95;;
19205;SDS011;59358;52.134;5.596;2023-03-15T05:41:08;17.30;;;7.55;;
19205;SDS011;59358;52.134;5.596;2023-03-15T05:43:35;18.83;;;7.57;;
19205;SDS011;59358;52.134;5.596;2023-03-15T05:46:01;26.25;;;7.60;;
19205;SDS011;59358;52.134;5.596;2023-03-15T05:48:28;19.92;;;7.65;;
19205;SDS011;59358;52.134;5.596;2023-03-15T05:50:56;30.98;;;9.60;;
19205;SDS011;59358;52.134;5.596;2023-03-15T05:53:23;34.75;;;10.20;;
19205;SDS011;59358;52.134;5.596;2023-03-15T05:55:51;35.53;;;12.60;;
19205;SDS011;59358;52.134;5.596;2023-03-15T05:58:18;37.35;;;14.65;;
19205;SDS011;59358;52.134;5.596;2023-03-15T06:00:44;36.75;;;13.57;;
19205;SDS011;59358;52.134;5.596;2023-03-15T06:03:13;29.25;;;13.57;;
19205;SDS011;59358;52.134;5.596;2023-03-15T06:05:40;30.02;;;12.60;;
19205;SDS011;59358;52.134;5.596;2023-03-15T06:08:06;30.00;;;12.98;;
19205;SDS011;59358;52.134;5.596;2023-03-15T06:10:33;32.58;;;12.65;;
19205;SDS011;59358;52.134;5.596;2023-03-15T06:13:02;27.58;;;11.48;;
19205;SDS011;59358;52.134;5.596;2023-03-15T06:15:29;31.95;;;13.63;;
19205;SDS011;59358;52.134;5.596;2023-03-15T06:17:56;33.25;;;12.55;;
19205;SDS011;59358;52.134;5.596;2023-03-15T06:20:23;37.15;;;13.82;;
19205;SDS011;59358;52.134;5.596;2023-03-15T06:22:50;30.85;;;12.85;;
19205;SDS011;59358;52.134;5.596;2023-03-15T06:25:17;32.60;;;13.88;;
19205;SDS011;59358;52.134;5.596;2023-03-15T06:27:44;33.33;;;12.82;;
19205;SDS011;59358;52.134;5.596;2023-03-15T06:30:12;36.15;;;13.85;;
19205;SDS011;59358;52.134;5.596;2023-03-15T06:32:39;32.08;;;13.75;;
19205;SDS011;59358;52.134;5.596;2023-03-15T06:35:07;33.08;;;15.25;;
19205;SDS011;59358;52.134;5.596;2023-03-15T06:37:34;39.25;;;15.35;;
19205;SDS011;59358;52.134;5.596;2023-03-15T06:40:01;33.28;;;15.50;;
19205;SDS011;59358;52.134;5.596;2023-03-15T06:42:31;29.52;;;13.05;;
19205;SDS011;59358;52.134;5.596;2023-03-15T06:44:58;28.45;;;12.38;;
19205;SDS011;59358;52.134;5.596;2023-03-15T06:47:26;27.88;;;11.52;;
19205;SDS011;59358;52.134;5.596;2023-03-15T06:49:53;33.75;;;11.88;;
19205;SDS011;59358;52.134;5.596;2023-03-15T06:52:20;27.63;;;10.70;;
19205;SDS011;59358;52.134;5.596;2023-03-15T06:54:47;28.30;;;11.57;;
19205;SDS011;59358;52.134;5.596;2023-03-15T06:57:14;39.35;;;12.80;;
19205;SDS011;59358;52.134;5.596;2023-03-15T06:59:41;30.67;;;13.43;;
19205;SDS011;59358;52.134;5.596;2023-03-15T07:02:08;35.92;;;16.05;;
19205;SDS011;59358;52.134;5.596;2023-03-15T07:04:40;35.53;;;15.93;;
19205;SDS011;59358;52.134;5.596;2023-03-15T07:07:08;41.88;;;16.10;;
19205;SDS011;59358;52.134;5.596;2023-03-15T07:09:35;34.08;;;14.35;;
19205;SDS011;59358;52.134;5.596;2023-03-15T07:12:02;36.47;;;14.15;;
19205;SDS011;59358;52.134;5.596;2023-03-15T07:14:30;33.58;;;13.15;;
19205;SDS011;59358;52.134;5.596;2023-03-15T07:16:58;32.95;;;13.52;;
19205;SDS011;59358;52.134;5.596;2023-03-15T07:19:25;33.50;;;14.00;;
19205;SDS011;59358;52.134;5.596;2023-03-15T07:21:53;28.77;;;14.00;;
19205;SDS011;59358;52.134;5.596;2023-03-15T07:24:20;36.72;;;14.18;;
19205;SDS011;59358;52.134;5.596;2023-03-15T07:26:47;27.35;;;12.60;;
19205;SDS011;59358;52.134;5.596;2023-03-15T07:29:18;31.77;;;13.88;;
19205;SDS011;59358;52.134;5.596;2023-03-15T07:31:45;34.92;;;13.93;;
19205;SDS011;59358;52.134;5.596;2023-03-15T07:34:12;38.47;;;14.73;;
19205;SDS011;59358;52.134;5.596;2023-03-15T07:36:39;34.80;;;15.55;;
19205;SDS011;59358;52.134;5.596;2023-03-15T07:39:07;40.30;;;15.65;;
19205;SDS011;59358;52.134;5.596;2023-03-15T07:41:34;34.00;;;16.05;;
19205;SDS011;59358;52.134;5.596;2023-03-15T07:44:02;38.60;;;16.40;;
19205;SDS011;59358;52.134;5.596;2023-03-15T07:46:29;39.75;;;18.15;;
19205;SDS011;59358;52.134;5.596;2023-03-15T07:48:56;48.38;;;19.88;;
19205;SDS011;59358;52.134;5.596;2023-03-15T07:51:23;40.20;;;19.95;;
19205;SDS011;59358;52.134;5.596;2023-03-15T07:53:50;42.00;;;20.27;;
19205;SDS011;59358;52.134;5.596;2023-03-15T07:56:18;45.92;;;21.27;;
19205;SDS011;59358;52.134;5.596;2023-03-15T07:58:45;39.75;;;19.77;;
19205;SDS011;59358;52.134;5.596;2023-03-15T08:01:12;33.40;;;15.25;;
19205;SDS011;59358;52.134;5.596;2023-03-15T08:03:38;34.00;;;14.57;;
19205;SDS011;59358;52.134;5.596;2023-03-15T08:06:06;37.53;;;15.70;;
19205;SDS011;59358;52.134;5.596;2023-03-15T08:08:33;34.67;;;15.13;;
19205;SDS011;59358;52.134;5.596;2023-03-15T08:11:00;31.63;;;14.15;;
19205;SDS011;59358;52.134;5.596;2023-03-15T08:13:31;36.80;;;13.50;;
19205;SDS011;59358;52.134;5.596;2023-03-15T08:15:58;33.35;;;13.63;;
19205;SDS011;59358;52.134;5.596;2023-03-15T08:18:24;41.38;;;14.40;;
19205;SDS011;59358;52.134;5.596;2023-03-15T08:20:52;31.48;;;14.35;;
19205;SDS011;59358;52.134;5.596;2023-03-15T08:23:19;33.28;;;13.15;;
19205;SDS011;59358;52.134;5.596;2023-03-15T08:25:46;30.45;;;12.90;;
19205;SDS011;59358;52.134;5.596;2023-03-15T08:28:14;30.20;;;11.90;;
19205;SDS011;59358;52.134;5.596;2023-03-15T08:30:44;27.77;;;10.95;;
19205;SDS011;59358;52.134;5.596;2023-03-15T08:33:10;29.08;;;11.48;;
19205;SDS011;59358;52.134;5.596;2023-03-15T08:35:37;26.23;;;12.65;;
19205;SDS011;59358;52.134;5.596;2023-03-15T08:38:05;34.95;;;12.15;;
19205;SDS011;59358;52.134;5.596;2023-03-15T08:40:33;29.77;;;9.93;;
19205;SDS011;59358;52.134;5.596;2023-03-15T08:43:00;20.05;;;9.13;;
19205;SDS011;59358;52.134;5.596;2023-03-15T08:45:27;19.90;;;9.82;;
19205;SDS011;59358;52.134;5.596;2023-03-15T08:47:56;23.38;;;10.68;;
19205;SDS011;59358;52.134;5.596;2023-03-15T08:50:24;26.20;;;7.95;;
19205;SDS011;59358;52.134;5.596;2023-03-15T08:52:52;20.42;;;6.03;;
19205;SDS011;59358;52.134;5.596;2023-03-15T08:55:19;19.02;;;7.15;;
19205;SDS011;59358;52.134;5.596;2023-03-15T08:57:46;17.92;;;6.18;;
19205;SDS011;59358;52.134;5.596;2023-03-15T09:00:13;20.75;;;5.65;;
19205;SDS011;59358;52.134;5.596;2023-03-15T09:02:44;11.27;;;6.05;;
19205;SDS011;59358;52.134;5.596;2023-03-15T09:05:14;13.73;;;5.82;;
19205;SDS011;59358;52.134;5.596;2023-03-15T09:07:42;14.30;;;4.30;;
19205;SDS011;59358;52.134;5.596;2023-03-15T09:10:09;14.43;;;5.20;;
19205;SDS011;59358;52.134;5.596;2023-03-15T09:12:40;11.23;;;4.38;;
19205;SDS011;59358;52.134;5.596;2023-03-15T09:15:08;10.15;;;4.82;;
19205;SDS011;59358;52.134;5.596;2023-03-15T09:17:36;11.88;;;4.65;;
19205;SDS011;59358;52.134;5.596;2023-03-15T09:20:03;14.85;;;4.57;;
19205;SDS011;59358;52.134;5.596;2023-03-15T09:22:39;12.82;;;3.20;;
19205;SDS011;59358;52.134;5.596;2023-03-15T09:25:06;9.40;;;2.75;;
19205;SDS011;59358;52.134;5.596;2023-03-15T09:27:33;11.57;;;3.08;;
19205;SDS011;59358;52.134;5.596;2023-03-15T09:30:00;13.55;;;2.63;;
19205;SDS011;59358;52.134;5.596;2023-03-15T09:32:27;8.27;;;2.70;;
19205;SDS011;59358;52.134;5.596;2023-03-15T09:35:00;8.20;;;2.22;;
19205;SDS011;59358;52.134;5.596;2023-03-15T09:37:27;5.00;;;1.83;;
19205;SDS011;59358;52.134;5.596;2023-03-15T09:39:55;9.52;;;2.15;;
19205;SDS011;59358;52.134;5.596;2023-03-15T09:42:23;17.50;;;2.67;;
19205;SDS011;59358;52.134;5.596;2023-03-15T09:44:56;7.05;;;2.20;;
19205;SDS011;59358;52.134;5.596;2023-03-15T09:47:32;7.35;;;2.17;;
19205;SDS011;59358;52.134;5.596;2023-03-15T09:50:06;14.40;;;2.47;;
19205;SDS011;59358;52.134;5.596;2023-03-15T09:52:46;7.15;;;2.10;;
19205;SDS011;59358;52.134;5.596;2023-03-15T09:55:18;11.75;;;2.38;;
19205;SDS011;59358;52.134;5.596;2023-03-15T09:57:49;5.55;;;1.60;;
19205;SDS011;59358;52.134;5.596;2023-03-15T10:00:19;9.82;;;3.15;;
19205;SDS011;59358;52.134;5.596;2023-03-15T10:02:50;6.70;;;2.22;;
19205;SDS011;59358;52.134;5.596;2023-03-15T10:05:25;7.70;;;2.03;;
19205;SDS011;59358;52.134;5.596;2023-03-15T10:08:07;8.48;;;1.80;;
19205;SDS011;59358;52.134;5.596;2023-03-15T10:10:37;6.07;;;1.80;;
19205;SDS011;59358;52.134;5.596;2023-03-15T10:13:13;5.30;;;1.80;;
19205;SDS011;59358;52.134;5.596;2023-03-15T10:15:55;6.38;;;1.48;;
19205;SDS011;59358;52.134;5.596;2023-03-15T10:18:35;7.57;;;1.40;;
19205;SDS011;59358;52.134;5.596;2023-03-15T10:21:09;6.35;;;1.33;;
19205;SDS011;59358;52.134;5.596;2023-03-15T10:23:38;8.63;;;1.83;;
19205;SDS011;59358;52.134;5.596;2023-03-15T10:26:12;8.35;;;1.50;;
19205;SDS011;59358;52.134;5.596;2023-03-15T10:28:42;6.72;;;1.30;;
19205;SDS011;59358;52.134;5.596;2023-03-15T10:31:11;4.10;;;1.17;;
19205;SDS011;59358;52.134;5.596;2023-03-15T10:33:39;4.60;;;1.40;;
19205;SDS011;59358;52.134;5.596;2023-03-15T10:36:11;6.05;;;1.63;;
19205;SDS011;59358;52.134;5.596;2023-03-15T10:38:41;2.85;;;1.15;;
19205;SDS011;59358;52.134;5.596;2023-03-15T10:41:09;5.47;;;1.30;;
19205;SDS011;59358;52.134;5.596;2023-03-15T10:43:39;6.22;;;1.88;;
19205;SDS011;59358;52.134;5.596;2023-03-15T10:46:07;4.57;;;1.70;;
19205;SDS011;59358;52.134;5.596;2023-03-15T10:48:36;6.28;;;1.60;;
19205;SDS011;59358;52.134;5.596;2023-03-15T10:51:05;7.68;;;1.42;;
19205;SDS011;59358;52.134;5.596;2023-03-15T10:53:33;4.18;;;1.35;;
19205;SDS011;59358;52.134;5.596;2023-03-15T10:56:03;7.80;;;1.60;;
19205;SDS011;59358;52.134;5.596;2023-03-15T10:58:39;4.93;;;1.33;;
19205;SDS011;59358;52.134;5.596;2023-03-15T11:01:12;6.55;;;1.25;;
19205;SDS011;59358;52.134;5.596;2023-03-15T11:03:52;6.65;;;1.73;;
19205;SDS011;59358;52.134;5.596;2023-03-15T11:06:27;8.70;;;1.73;;
19205;SDS011;59358;52.134;5.596;2023-03-15T11:08:57;5.90;;;1.50;;
19205;SDS011;59358;52.134;5.596;2023-03-15T11:11:47;4.68;;;1.30;;
19205;SDS011;59358;52.134;5.596;2023-03-15T11:14:28;4.93;;;1.30;;
19205;SDS011;59358;52.134;5.596;2023-03-15T11:16:58;2.92;;;1.02;;
19205;SDS011;59358;52.134;5.596;2023-03-15T11:19:26;12.40;;;1.73;;
19205;SDS011;59358;52.134;5.596;2023-03-15T11:21:55;6.43;;;2.05;;
19205;SDS011;59358;52.134;5.596;2023-03-15T11:24:25;4.05;;;1.40;;
19205;SDS011;59358;52.134;5.596;2023-03-15T11:26:54;5.50;;;1.40;;
19205;SDS011;59358;52.134;5.596;2023-03-15T11:29:27;4.00;;;1.40;;
19205;SDS011;59358;52.134;5.596;2023-03-15T11:31:57;6.13;;;2.22;;
19205;SDS011;59358;52.134;5.596;2023-03-15T11:37:12;4.47;;;1.10;;
19205;SDS011;59358;52.134;5.596;2023-03-15T11:39:43;5.18;;;1.27;;
19205;SDS011;59358;52.134;5.596;2023-03-15T11:42:18;8.32;;;1.33;;
19205;SDS011;59358;52.134;5.596;2023-03-15T11:44:50;6.85;;;1.50;;
19205;SDS011;59358;52.134;5.596;2023-03-15T11:47:23;5.13;;;1.30;;
19205;SDS011;59358;52.134;5.596;2023-03-15T11:49:58;4.55;;;1.30;;
19205;SDS011;59358;52.134;5.596;2023-03-15T11:52:25;7.55;;;1.48;;
19205;SDS011;59358;52.134;5.596;2023-03-15T11:54:54;5.57;;;1.73;;
19205;SDS011;59358;52.134;5.596;2023-03-15T12:00:17;4.68;;;1.17;;
19205;SDS011;59358;52.134;5.596;2023-03-15T12:03:33;6.35;;;1.60;;
19205;SDS011;59358;52.134;5.596;2023-03-15T12:12:33;6.25;;;1.55;;
19205;SDS011;59358;52.134;5.596;2023-03-15T12:15:02;6.68;;;1.65;;
19205;SDS011;59358;52.134;5.596;2023-03-15T12:17:37;8.00;;;1.30;;
19205;SDS011;59358;52.134;5.596;2023-03-15T12:20:15;4.93;;;1.25;;
19205;SDS011;59358;52.134;5.596;2023-03-15T12:22:47;5.88;;;1.60;;
19205;SDS011;59358;52.134;5.596;2023-03-15T12:25:18;6.38;;;1.50;;
19205;SDS011;59358;52.134;5.596;2023-03-15T12:27:48;4.97;;;1.70;;
19205;SDS011;59358;52.134;5.596;2023-03-15T12:30:19;8.10;;;1.70;;
19205;SDS011;59358;52.134;5.596;2023-03-15T12:32:50;3.47;;;1.20;;
19205;SDS011;59358;52.134;5.596;2023-03-15T12:35:20;2.70;;;1.08;;
19205;SDS011;59358;52.134;5.596;2023-03-15T12:37:49;6.53;;;1.20;;
19205;SDS011;59358;52.134;5.596;2023-03-15T12:40:36;8.30;;;1.33;;
19205;SDS011;59358;52.134;5.596;2023-03-15T12:43:12;5.65;;;1.80;;
19205;SDS011;59358;52.134;5.596;2023-03-15T12:45:43;3.92;;;1.33;;
19205;SDS011;59358;52.134;5.596;2023-03-15T12:48:20;2.47;;;1.40;;
19205;SDS011;59358;52.134;5.596;2023-03-15T12:50:50;4.80;;;1.35;;
19205;SDS011;59358;52.134;5.596;2023-03-15T12:53:33;2.85;;;1.05;;
19205;SDS011;59358;52.134;5.596;2023-03-15T12:59:02;3.05;;;1.17;;
19205;SDS011;59358;52.134;5.596;2023-03-15T13:01:35;4.38;;;1.35;;
19205;SDS011;59358;52.134;5.596;2023-03-15T13:04:03;5.72;;;1.30;;
19205;SDS011;59358;52.134;5.596;2023-03-15T13:06:34;4.78;;;1.33;;
19205;SDS011;59358;52.134;5.596;2023-03-15T13:09:12;2.35;;;1.25;;
19205;SDS011;59358;52.134;5.596;2023-03-15T13:11:49;4.38;;;1.67;;
19205;SDS011;59358;52.134;5.596;2023-03-15T13:14:33;6.85;;;1.83;;
19205;SDS011;59358;52.134;5.596;2023-03-15T13:17:08;2.67;;;1.13;;
19205;SDS011;59358;52.134;5.596;2023-03-15T13:19:45;4.45;;;1.20;;
19205;SDS011;59358;52.134;5.596;2023-03-15T13:22:21;3.67;;;1.23;;
19205;SDS011;59358;52.134;5.596;2023-03-15T13:24:55;4.18;;;1.10;;
19205;SDS011;59358;52.134;5.596;2023-03-15T13:27:29;3.20;;;0.95;;
19205;SDS011;59358;52.134;5.596;2023-03-15T13:30:19;6.63;;;1.65;;
19205;SDS011;59358;52.134;5.596;2023-03-15T13:33:03;5.03;;;1.05;;
19205;SDS011;59358;52.134;5.596;2023-03-15T13:35:32;4.57;;;1.75;;
19205;SDS011;59358;52.134;5.596;2023-03-15T13:38:06;8.32;;;1.67;;
19205;SDS011;59358;52.134;5.596;2023-03-15T13:40:43;2.85;;;1.30;;
19205;SDS011;59358;52.134;5.596;2023-03-15T13:43:11;6.07;;;1.88;;
19205;SDS011;59358;52.134;5.596;2023-03-15T13:45:40;4.57;;;1.20;;
19205;SDS011;59358;52.134;5.596;2023-03-15T13:48:07;6.30;;;2.30;;
19205;SDS011;59358;52.134;5.596;2023-03-15T13:50:35;3.88;;;1.33;;
19205;SDS011;59358;52.134;5.596;2023-03-15T13:53:02;5.63;;;1.50;;
19205;SDS011;59358;52.134;5.596;2023-03-15T13:55:31;7.57;;;2.45;;
19205;SDS011;59358;52.134;5.596;2023-03-15T13:58:04;4.82;;;1.42;;
19205;SDS011;59358;52.134;5.596;2023-03-15T14:00:33;6.60;;;1.85;;
19205;SDS011;59358;52.134;5.596;2023-03-15T14:03:02;3.13;;;1.08;;
19205;SDS011;59358;52.134;5.596;2023-03-15T14:05:32;5.18;;;1.60;;
19205;SDS011;59358;52.134;5.596;2023-03-15T14:08:14;4.95;;;1.35;;
19205;SDS011;59358;52.134;5.596;2023-03-15T14:10:56;6.40;;;1.73;;
19205;SDS011;59358;52.134;5.596;2023-03-15T14:13:25;7.43;;;1.25;;
19205;SDS011;59358;52.134;5.596;2023-03-15T14:15:56;4.93;;;1.02;;
19205;SDS011;59358;52.134;5.596;2023-03-15T14:18:27;4.72;;;1.42;;
19205;SDS011;59358;52.134;5.596;2023-03-15T14:20:57;5.55;;;1.40;;
19205;SDS011;59358;52.134;5.596;2023-03-15T14:23:28;5.88;;;1.73;;
19205;SDS011;59358;52.134;5.596;2023-03-15T14:25:59;4.93;;;1.83;;
19205;SDS011;59358;52.134;5.596;2023-03-15T14:28:31;6.00;;;2.05;;
19205;SDS011;59358;52.134;5.596;2023-03-15T14:30:58;4.50;;;1.45;;
19205;SDS011;59358;52.134;5.596;2023-03-15T14:33:29;7.70;;;1.27;;
19205;SDS011;59358;52.134;5.596;2023-03-15T14:35:59;5.28;;;1.38;;
19205;SDS011;59358;52.134;5.596;2023-03-15T14:38:32;5.03;;;1.52;;
19205;SDS011;59358;52.134;5.596;2023-03-15T14:41:16;4.10;;;1.50;;
19205;SDS011;59358;52.134;5.596;2023-03-15T14:43:47;6.35;;;1.35;;
19205;SDS011;59358;52.134;5.596;2023-03-15T14:46:14;3.88;;;1.23;;
19205;SDS011;59358;52.134;5.596;2023-03-15T14:48:41;4.22;;;1.10;;
19205;SDS011;59358;52.134;5.596;2023-03-15T14:51:11;5.88;;;0.98;;
19205;SDS011;59358;52.134;5.596;2023-03-15T14:53:42;6.28;;;1.20;;
19205;SDS011;59358;52.134;5.596;2023-03-15T14:56:11;4.53;;;1.20;;
19205;SDS011;59358;52.134;5.596;2023-03-15T14:58:38;5.05;;;1.23;;
19205;SDS011;59358;52.134;5.596;2023-03-15T15:01:06;6.80;;;1.70;;
19205;SDS011;59358;52.134;5.596;2023-03-15T15:03:35;3.50;;;1.42;;
19205;SDS011;59358;52.134;5.596;2023-03-15T15:06:05;6.72;;;1.33;;
19205;SDS011;59358;52.134;5.596;2023-03-15T15:08:34;5.70;;;1.63;;